Terminal Aerodrome Forecast
Issued by NWS

Home | Current Version | Previous Version | Text Only | Print | Product List | Glossary On
Versions: 1 2 3 4 5 6 7 8 9 10 11 12 13 14 15 16 17 18 19 20 21 22 23 24 25 26 27 28 29 30 31 32 33 34 35 36
243
FTUS45 KREV 241722
TAFTRK
TAF
KTRK 241722Z 2418/2518 04006KT P6SM FEW060
     FM250200 VRB03KT P6SM SKC
     FM251000 00000KT 6SM BCFG FEW002 SCT180
     FM251600 VRB04KT P6SM FEW100 SCT180=

USA.gov is the U.S. government's official web portal to all federal, state and local government web resources and services.